^^
Grace C. Lehan Memorial Weather Station Historical Data
Daily Summary for July 20, 2021 Units:  Both    English   Metric
Daily Weekly Monthly Yearly
  High: Low: Average:
Temperature: 76.8 °F /  24.9 °C 53.7 °F /  12.1 °C 65.9 °F /  18.8 °C
Dew Point: 62.8 °F /  17.1 °C 52 °F /  11.1 °C 57.5 °F /  14.2 °C
Humidity: 95.5% 58.3% 76%
Wind Speed: 1.5mph /  2.4km/h - 0.1mph /  0.2km/h
Wind Gust: 9mph /  14.5km/h - -
Wind- - South
Pressure: 30.35 in /  1027.7 hPa 30.21 in /  1022.9 hPa -
Precipitation: 0.00 in /  0 mm    
 
 
Tabular Data for July 20, 2021
Time Temperature Dew Point Pressure Wind Wind Speed Wind Gust Humidity Rainfall Rate (Hourly) solar
00:04 58.7 °F /  14.8 °C 55.2 °F /  12.9 °C 30.22in /  1023.2hPa Calm     88% 0.00in /  0mm 0 W/m2
00:09 58.7 °F /  14.8 °C 55.2 °F /  12.9 °C 30.22in /  1023.2hPa Calm     88% 0.00in /  0mm 0 W/m2
00:14 58.6 °F /  14.8 °C 55.1 °F /  12.8 °C 30.22in /  1023.2hPa Calm     88% 0.00in /  0mm 0 W/m2
00:19 58.6 °F /  14.8 °C 55.1 °F /  12.8 °C 30.22in /  1023.2hPa Calm     88% 0.00in /  0mm 0 W/m2
01:00 58 °F /  14.4 °C 54.8 °F /  12.7 °C 30.21in /  1022.9hPa Calm     89% 0.00in /  0mm 0 W/m2
01:30 57.3 °F /  14.1 °C 54.4 °F /  12.4 °C 30.22in /  1023.2hPa Calm     90% 0.00in /  0mm 0 W/m2
02:00 56.9 °F /  13.8 °C 54.6 °F /  12.6 °C 30.22in /  1023.2hPa Calm     92% 0.00in /  0mm 0 W/m2
02:30 56.2 °F /  13.4 °C 53.9 °F /  12.2 °C 30.23in /  1023.6hPa Calm     92% 0.00in /  0mm 0 W/m2
03:00 55.9 °F /  13.3 °C 53.6 °F /  12 °C 30.24in /  1023.9hPa Calm     92% 0.00in /  0mm 0 W/m2
03:30 55.6 °F /  13.1 °C 53.6 °F /  12 °C 30.24in /  1023.9hPa Calm     93% 0.00in /  0mm 0 W/m2
04:04 55.3 °F /  12.9 °C 53.3 °F /  11.8 °C 30.24in /  1023.9hPa Calm     93% 0.00in /  0mm 0 W/m2
04:09 55.3 °F /  12.9 °C 53.3 °F /  11.8 °C 30.24in /  1023.9hPa Calm     93% 0.00in /  0mm 0 W/m2
04:14 55.2 °F /  12.9 °C 53.2 °F /  11.8 °C 30.24in /  1023.9hPa Calm     93% 0.00in /  0mm 0 W/m2
04:19 55.1 °F /  12.8 °C 53.1 °F /  11.7 °C 30.25in /  1024.3hPa Calm     93% 0.00in /  0mm 0 W/m2
04:24 55.1 °F /  12.8 °C 53.1 °F /  11.7 °C 30.25in /  1024.3hPa Calm     93% 0.00in /  0mm 0 W/m2
04:29 55.1 °F /  12.8 °C 53.4 °F /  11.9 °C 30.25in /  1024.3hPa Calm     94% 0.00in /  0mm 0 W/m2
04:34 55.1 °F /  12.8 °C 53.4 °F /  11.9 °C 30.25in /  1024.3hPa Calm     94% 0.00in /  0mm 0 W/m2
04:39 55.1 °F /  12.8 °C 53.4 °F /  11.9 °C 30.25in /  1024.3hPa Calm     94% 0.00in /  0mm 0 W/m2
04:44 55 °F /  12.8 °C 53.1 °F /  11.7 °C 30.25in /  1024.3hPa Calm     93.3% 0.00in /  0mm 0 W/m2
04:49 54.9 °F /  12.7 °C 53.1 °F /  11.7 °C 30.25in /  1024.3hPa Calm     93.7% 0.00in /  0mm 0 W/m2
04:54 54.8 °F /  12.7 °C 53.1 °F /  11.7 °C 30.25in /  1024.3hPa Calm     94% 0.00in /  0mm 0 W/m2
04:59 54.7 °F /  12.6 °C 53 °F /  11.7 °C 30.25in /  1024.3hPa Calm     94% 0.00in /  0mm 0 W/m2
05:04 54.6 °F /  12.6 °C 52.9 °F /  11.6 °C 30.25in /  1024.3hPa Calm     94% 0.00in /  0mm 0 W/m2
05:09 54.5 °F /  12.5 °C 52.6 °F /  11.4 °C 30.26in /  1024.6hPa Calm     93.1% 0.00in /  0mm 0 W/m2
05:14 54.4 °F /  12.4 °C 52.4 °F /  11.3 °C 30.26in /  1024.6hPa Calm     93% 0.00in /  0mm 0 W/m2
05:19 54.3 °F /  12.4 °C 52.3 °F /  11.3 °C 30.26in /  1024.6hPa Calm     93% 0.00in /  0mm 0 W/m2
05:24 54.2 °F /  12.3 °C 52.4 °F /  11.3 °C 30.26in /  1024.6hPa Calm     93.5% 0.00in /  0mm 0 W/m2
05:29 54.2 °F /  12.3 °C 52.5 °F /  11.4 °C 30.26in /  1024.6hPa Calm     94% 0.00in /  0mm 0 W/m2
05:34 54.2 °F /  12.3 °C 52.5 °F /  11.4 °C 30.26in /  1024.6hPa Calm     94% 0.00in /  0mm 0 W/m2
05:39 54.2 °F /  12.3 °C 52.5 °F /  11.4 °C 30.26in /  1024.6hPa Calm     94% 0.00in /  0mm 0 W/m2
05:44 54.2 °F /  12.3 °C 52.5 °F /  11.4 °C 30.26in /  1024.6hPa Calm     94% 0.00in /  0mm 0 W/m2
05:49 54.2 °F /  12.3 °C 52.5 °F /  11.4 °C 30.26in /  1024.6hPa Calm     94% 0.00in /  0mm 0 W/m2
05:54 54.2 °F /  12.3 °C 52.5 °F /  11.4 °C 30.27in /  1024.9hPa Calm     94% 0.00in /  0mm 0 W/m2
05:59 54.2 °F /  12.3 °C 52.5 °F /  11.4 °C 30.26in /  1024.6hPa Calm     94% 0.00in /  0mm 0 W/m2
06:04 54.1 °F /  12.3 °C 52.4 °F /  11.3 °C 30.27in /  1024.9hPa Calm     94% 0.00in /  0mm 0 W/m2
06:09 54.1 °F /  12.3 °C 52.4 °F /  11.3 °C 30.27in /  1024.9hPa Calm     94% 0.00in /  0mm 0 W/m2
06:14 54.1 °F /  12.3 °C 52.4 °F /  11.3 °C 30.27in /  1024.9hPa Calm     94% 0.00in /  0mm 0 W/m2
06:19 54.1 °F /  12.3 °C 52.4 °F /  11.3 °C 30.27in /  1024.9hPa Calm     94% 0.00in /  0mm 0 W/m2
06:24 54 °F /  12.2 °C 52.3 °F /  11.3 °C 30.28in /  1025.3hPa Calm     94% 0.00in /  0mm 0 W/m2
06:29 53.9 °F /  12.2 °C 52.2 °F /  11.2 °C 30.28in /  1025.3hPa Calm     94% 0.00in /  0mm 0 W/m2
06:34 53.9 °F /  12.2 °C 52.2 °F /  11.2 °C 30.28in /  1025.3hPa Calm     94% 0.00in /  0mm 0 W/m2
06:39 53.9 °F /  12.2 °C 52.2 °F /  11.2 °C 30.29in /  1025.6hPa Calm     94% 0.00in /  0mm 0 W/m2
06:44 53.8 °F /  12.1 °C 52.1 °F /  11.2 °C 30.29in /  1025.6hPa Calm     94% 0.00in /  0mm 5 W/m2
06:49 53.8 °F /  12.1 °C 52.1 °F /  11.2 °C 30.29in /  1025.6hPa Calm     94% 0.00in /  0mm 7 W/m2
06:54 53.8 °F /  12.1 °C 52.1 °F /  11.2 °C 30.30in /  1026hPa Calm     94% 0.00in /  0mm 7 W/m2
06:59 53.8 °F /  12.1 °C 52.1 °F /  11.2 °C 30.29in /  1025.6hPa Calm     94% 0.00in /  0mm 9 W/m2
07:04 53.7 °F /  12.1 °C 52 °F /  11.1 °C 30.30in /  1026hPa Calm     94% 0.00in /  0mm 11 W/m2
07:09 53.7 °F /  12.1 °C 52 °F /  11.1 °C 30.30in /  1026hPa Calm     94% 0.00in /  0mm 11 W/m2
07:14 53.7 °F /  12.1 °C 52 °F /  11.1 °C 30.30in /  1026hPa Calm     94% 0.00in /  0mm 12 W/m2
07:19 53.7 °F /  12.1 °C 52 °F /  11.1 °C 30.30in /  1026hPa Calm     94% 0.00in /  0mm 23 W/m2
07:24 53.7 °F /  12.1 °C 52 °F /  11.1 °C 30.31in /  1026.3hPa Calm     94% 0.00in /  0mm 42 W/m2
07:29 53.7 °F /  12.1 °C 52.2 °F /  11.2 °C 30.30in /  1026hPa Calm     94.6% 0.00in /  0mm 51 W/m2
07:34 53.9 °F /  12.2 °C 52.5 °F /  11.4 °C 30.31in /  1026.3hPa Calm     95% 0.00in /  0mm 49 W/m2
07:39 54.2 °F /  12.3 °C 52.8 °F /  11.6 °C 30.31in /  1026.3hPa Calm     95% 0.00in /  0mm 56 W/m2
07:44 54.6 °F /  12.6 °C 53.2 °F /  11.8 °C 30.31in /  1026.3hPa Calm     95% 0.00in /  0mm 62 W/m2
07:49 55 °F /  12.8 °C 53.7 °F /  12.1 °C 30.31in /  1026.3hPa Calm     95.1% 0.00in /  0mm 65 W/m2
07:54 55.5 °F /  13.1 °C 54.3 °F /  12.4 °C 30.31in /  1026.3hPa Calm     95.5% 0.00in /  0mm 42 W/m2
07:59 55.8 °F /  13.2 °C 54.4 °F /  12.4 °C 30.31in /  1026.3hPa Calm     95% 0.00in /  0mm 49 W/m2
08:09 56.2 °F /  13.4 °C 54.8 °F /  12.7 °C 30.31in /  1026.3hPa Calm     95% 0.00in /  0mm 28 W/m2
08:13 56.3 °F /  13.5 °C 54.9 °F /  12.7 °C 30.31in /  1026.3hPa ENE 0.1mph /  0.2km/h 2mph /  3.2km/h 94.9% 0.00in /  0mm 33 W/m2
08:30 57.3 °F /  14.1 °C 55.6 °F /  13.1 °C 30.31in /  1026.3hPa Calm   3mph /  4.8km/h 94% 0.00in /  0mm 55 W/m2
09:00 59.6 °F /  15.3 °C 57 °F /  13.9 °C 30.32in /  1026.6hPa Calm   2mph /  3.2km/h 91% 0.00in /  0mm 158 W/m2
09:30 63.6 °F /  17.6 °C 58 °F /  14.4 °C 30.33in /  1027hPa Calm   3mph /  4.8km/h 82% 0.00in /  0mm 321 W/m2
10:00 67 °F /  19.4 °C 58.8 °F /  14.9 °C 30.34in /  1027.3hPa Calm   3mph /  4.8km/h 75% 0.00in /  0mm 493 W/m2
10:30 71 °F /  21.7 °C 61.9 °F /  16.6 °C 30.34in /  1027.3hPa Calm   4mph /  6.4km/h 73% 0.00in /  0mm 626 W/m2
11:00 72.6 °F /  22.6 °C 62.3 °F /  16.8 °C 30.34in /  1027.3hPa Calm   2mph /  3.2km/h 70% 0.00in /  0mm 691 W/m2
11:30 74.8 °F /  23.8 °C 62.7 °F /  17.1 °C 30.33in /  1027hPa Calm   2mph /  3.2km/h 66% 0.00in /  0mm 719 W/m2
12:04 73 °F /  22.8 °C 61.5 °F /  16.4 °C 30.33in /  1027hPa Calm     67.1% 0.00in /  0mm 95 W/m2
12:09 73 °F /  22.8 °C 62.1 °F /  16.7 °C 30.33in /  1027hPa Calm     68.7% 0.00in /  0mm 134 W/m2
12:14 73 °F /  22.8 °C 62.2 °F /  16.8 °C 30.33in /  1027hPa Calm     68.8% 0.00in /  0mm 130 W/m2
12:19 73.2 °F /  22.9 °C 62.8 °F /  17.1 °C 30.33in /  1027hPa ENE 0.5mph /  0.8km/h 5mph /  8km/h 70% 0.00in /  0mm 171 W/m2
12:24 73.5 °F /  23.1 °C 62.6 °F /  17 °C 30.33in /  1027hPa ENE 0.2mph /  0.3km/h 5mph /  8km/h 68.9% 0.00in /  0mm 450 W/m2
12:29 73.7 °F /  23.2 °C 62.4 °F /  16.9 °C 30.33in /  1027hPa Calm   5mph /  8km/h 67.7% 0.00in /  0mm 450 W/m2
12:34 73.8 °F /  23.2 °C 62.7 °F /  17.1 °C 30.33in /  1027hPa Calm   5mph /  8km/h 68.3% 0.00in /  0mm 283 W/m2
12:39 73.9 °F /  23.3 °C 62.7 °F /  17.1 °C 30.33in /  1027hPa ENE 0.2mph /  0.3km/h 4mph /  6.4km/h 68.1% 0.00in /  0mm 309 W/m2
12:44 74 °F /  23.3 °C 62.3 °F /  16.8 °C 30.33in /  1027hPa Calm   4mph /  6.4km/h 67% 0.00in /  0mm 195 W/m2
12:49 74 °F /  23.3 °C 61.8 °F /  16.6 °C 30.33in /  1027hPa ENE 0.1mph /  0.2km/h 4mph /  6.4km/h 65.8% 0.00in /  0mm 192 W/m2
12:54 73.8 °F /  23.2 °C 61.5 °F /  16.4 °C 30.33in /  1027hPa Calm   4mph /  6.4km/h 65.3% 0.00in /  0mm 410 W/m2
12:59 73.9 °F /  23.3 °C 61.7 °F /  16.5 °C 30.33in /  1027hPa East 0.2mph /  0.3km/h 4mph /  6.4km/h 65.7% 0.00in /  0mm 410 W/m2
13:04 74 °F /  23.3 °C 61.8 °F /  16.6 °C 30.33in /  1027hPa Calm   4mph /  6.4km/h 65.9% 0.00in /  0mm 733 W/m2
13:09 74.2 °F /  23.4 °C 62.1 °F /  16.7 °C 30.33in /  1027hPa ENE 0.6mph /  1km/h 3mph /  4.8km/h 66% 0.00in /  0mm 659 W/m2
13:14 74.4 °F /  23.6 °C 61.7 °F /  16.5 °C 30.32in /  1026.6hPa ENE 0.2mph /  0.3km/h 4mph /  6.4km/h 64.6% 0.00in /  0mm 327 W/m2
13:19 74.5 °F /  23.6 °C 61.2 °F /  16.2 °C 30.32in /  1026.6hPa Calm   4mph /  6.4km/h 63.3% 0.00in /  0mm 116 W/m2
13:24 74.3 °F /  23.5 °C 61.1 °F /  16.2 °C 30.32in /  1026.6hPa Calm   4mph /  6.4km/h 63.5% 0.00in /  0mm 97 W/m2
13:29 74.1 °F /  23.4 °C 61.8 °F /  16.6 °C 30.32in /  1026.6hPa ENE 0.4mph /  0.6km/h 4mph /  6.4km/h 65.3% 0.00in /  0mm 130 W/m2
13:34 74.2 °F /  23.4 °C 61.7 °F /  16.5 °C 30.32in /  1026.6hPa ENE 0.6mph /  1km/h 4mph /  6.4km/h 65.1% 0.00in /  0mm 207 W/m2
13:39 74.2 °F /  23.4 °C 60.8 °F /  16 °C 30.32in /  1026.6hPa Calm   4mph /  6.4km/h 62.9% 0.00in /  0mm 207 W/m2
13:44 74.3 °F /  23.5 °C 61.3 °F /  16.3 °C 30.32in /  1026.6hPa ENE 0.7mph /  1.1km/h 6mph /  9.7km/h 63.9% 0.00in /  0mm 142 W/m2
13:49 74.6 °F /  23.7 °C 60.6 °F /  15.9 °C 30.32in /  1026.6hPa WSW 1.5mph /  2.4km/h 9mph /  14.5km/h 61.8% 0.00in /  0mm 113 W/m2
13:54 75 °F /  23.9 °C 60.5 °F /  15.8 °C 30.32in /  1026.6hPa SW 0.1mph /  0.2km/h 9mph /  14.5km/h 60.7% 0.00in /  0mm 102 W/m2
13:59 75.2 °F /  24 °C 60.3 °F /  15.7 °C 30.32in /  1026.6hPa Calm   9mph /  14.5km/h 59.8% 0.00in /  0mm 97 W/m2
14:04 75.4 °F /  24.1 °C 60.8 °F /  16 °C 30.32in /  1026.6hPa SSW 0.5mph /  0.8km/h 9mph /  14.5km/h 60.6% 0.00in /  0mm 107 W/m2
14:09 75.7 °F /  24.3 °C 61.1 °F /  16.2 °C 30.32in /  1026.6hPa South 0.6mph /  1km/h 4mph /  6.4km/h 60.5% 0.00in /  0mm 118 W/m2
14:14 75.8 °F /  24.3 °C 61 °F /  16.1 °C 30.31in /  1026.3hPa SSE 0.4mph /  0.6km/h 4mph /  6.4km/h 60.1% 0.00in /  0mm 113 W/m2
14:19 76 °F /  24.4 °C 60.3 °F /  15.7 °C 30.31in /  1026.3hPa SE 0.8mph /  1.3km/h 5mph /  8km/h 58.3% 0.00in /  0mm 107 W/m2
14:24 75.8 °F /  24.3 °C 60.2 °F /  15.7 °C 30.31in /  1026.3hPa Calm   5mph /  8km/h 58.4% 0.00in /  0mm 77 W/m2
14:29 75.5 °F /  24.2 °C 60.3 °F /  15.7 °C 30.31in /  1026.3hPa Calm   5mph /  8km/h 59.4% 0.00in /  0mm 105 W/m2
14:34 75.2 °F /  24 °C 60.9 °F /  16.1 °C 30.31in /  1026.3hPa SE 0.1mph /  0.2km/h 5mph /  8km/h 61% 0.00in /  0mm 123 W/m2
14:39 75.2 °F /  24 °C 61.4 °F /  16.3 °C 30.31in /  1026.3hPa SW 0.3mph /  0.5km/h 5mph /  8km/h 62.1% 0.00in /  0mm 142 W/m2
14:44 75.5 °F /  24.2 °C 60.7 °F /  15.9 °C 30.31in /  1026.3hPa SSE 0.5mph /  0.8km/h 5mph /  8km/h 60.1% 0.00in /  0mm 223 W/m2
14:49 75.6 °F /  24.2 °C 60.5 °F /  15.8 °C 30.31in /  1026.3hPa SE 0.3mph /  0.5km/h 5mph /  8km/h 59.5% 0.00in /  0mm 121 W/m2
14:54 75.5 °F /  24.2 °C 61.1 °F /  16.2 °C 30.31in /  1026.3hPa Calm   5mph /  8km/h 61% 0.00in /  0mm 93 W/m2
14:59 75.2 °F /  24 °C 60.7 °F /  15.9 °C 30.31in /  1026.3hPa Calm   5mph /  8km/h 60.8% 0.00in /  0mm 146 W/m2
15:04 75 °F /  23.9 °C 61 °F /  16.1 °C 30.31in /  1026.3hPa SE 0.1mph /  0.2km/h 5mph /  8km/h 61.7% 0.00in /  0mm 146 W/m2
15:09 75.1 °F /  23.9 °C 61.3 °F /  16.3 °C 30.30in /  1026hPa SE 0.5mph /  0.8km/h 3mph /  4.8km/h 62.2% 0.00in /  0mm 374 W/m2
15:14 75.4 °F /  24.1 °C 61.2 °F /  16.2 °C 30.30in /  1026hPa South 1mph /  1.6km/h 4mph /  6.4km/h 61.4% 0.00in /  0mm 267 W/m2
15:19 75.8 °F /  24.3 °C 60.4 °F /  15.8 °C 30.30in /  1026hPa SSW 0.5mph /  0.8km/h 4mph /  6.4km/h 58.8% 0.00in /  0mm 480 W/m2
15:24 76.1 °F /  24.5 °C 60.7 °F /  15.9 °C 30.31in /  1026.3hPa SW 0.3mph /  0.5km/h 4mph /  6.4km/h 58.8% 0.00in /  0mm 480 W/m2
15:29 76.4 °F /  24.7 °C 61.7 °F /  16.5 °C 30.30in /  1026hPa SW 0.3mph /  0.5km/h 4mph /  6.4km/h 60.3% 0.00in /  0mm 642 W/m2
15:34 76.7 °F /  24.8 °C 61.9 °F /  16.6 °C 30.30in /  1026hPa SW 1.4mph /  2.3km/h 6mph /  9.7km/h 60.2% 0.00in /  0mm 642 W/m2
15:39 76.8 °F /  24.9 °C 61.7 °F /  16.5 °C 30.31in /  1026.3hPa SW 0.1mph /  0.2km/h 6mph /  9.7km/h 59.5% 0.00in /  0mm 90 W/m2
15:44 76.6 °F /  24.8 °C 61.3 °F /  16.3 °C 30.30in /  1026hPa WSW 0.4mph /  0.6km/h 6mph /  9.7km/h 59.3% 0.00in /  0mm 325 W/m2
15:49 76.2 °F /  24.6 °C 61.4 °F /  16.3 °C 30.31in /  1026.3hPa Calm   6mph /  9.7km/h 60.3% 0.00in /  0mm 79 W/m2
15:54 75.7 °F /  24.3 °C 61.5 °F /  16.4 °C 30.31in /  1026.3hPa WSW 0.1mph /  0.2km/h 6mph /  9.7km/h 61.4% 0.00in /  0mm 74 W/m2
15:59 75.2 °F /  24 °C 60.8 °F /  16 °C 30.30in /  1026hPa WSW 0.2mph /  0.3km/h 6mph /  9.7km/h 60.8% 0.00in /  0mm 56 W/m2
16:09 74.3 °F /  23.5 °C 60.9 °F /  16.1 °C 30.30in /  1026hPa WSW 0.6mph /  1km/h 4mph /  6.4km/h 63% 0.00in /  0mm 56 W/m2
16:14 74.3 °F /  23.5 °C 61 °F /  16.1 °C 30.30in /  1026hPa WSW 0.7mph /  1.1km/h 5mph /  8km/h 63.2% 0.00in /  0mm 51 W/m2
16:19 74.4 °F /  23.6 °C 60.5 °F /  15.8 °C 30.30in /  1026hPa WSW 0.2mph /  0.3km/h 5mph /  8km/h 61.8% 0.00in /  0mm 39 W/m2
16:24 74.4 °F /  23.6 °C 60.1 °F /  15.6 °C 30.30in /  1026hPa WSW 0.1mph /  0.2km/h 5mph /  8km/h 61% 0.00in /  0mm 33 W/m2
16:29 74.2 °F /  23.4 °C 59.9 °F /  15.5 °C 30.30in /  1026hPa WSW 0.1mph /  0.2km/h 5mph /  8km/h 61.1% 0.00in /  0mm 32 W/m2
16:34 73.9 °F /  23.3 °C 60.1 °F /  15.6 °C 30.30in /  1026hPa WSW 0.1mph /  0.2km/h 5mph /  8km/h 62% 0.00in /  0mm 26 W/m2
16:39 73.6 °F /  23.1 °C 60.2 °F /  15.7 °C 30.30in /  1026hPa WSW 0.1mph /  0.2km/h 1mph /  1.6km/h 62.9% 0.00in /  0mm 26 W/m2
16:44 73.4 °F /  23 °C 60.1 °F /  15.6 °C 30.30in /  1026hPa WSW 0.3mph /  0.5km/h 2mph /  3.2km/h 63% 0.00in /  0mm 32 W/m2
16:49 73.3 °F /  22.9 °C 60 °F /  15.6 °C 30.30in /  1026hPa Calm   2mph /  3.2km/h 63% 0.00in /  0mm 21 W/m2
16:54 73.2 °F /  22.9 °C 59.6 °F /  15.3 °C 30.31in /  1026.3hPa Calm   2mph /  3.2km/h 62.3% 0.00in /  0mm 25 W/m2
16:59 73.1 °F /  22.8 °C 60 °F /  15.6 °C 30.30in /  1026hPa Calm   2mph /  3.2km/h 63.7% 0.00in /  0mm 32 W/m2
17:04 73 °F /  22.8 °C 60.4 °F /  15.8 °C 30.31in /  1026.3hPa Calm   2mph /  3.2km/h 64.7% 0.00in /  0mm 32 W/m2
17:09 73 °F /  22.8 °C 60.5 °F /  15.8 °C 30.31in /  1026.3hPa SSW 0.1mph /  0.2km/h 3mph /  4.8km/h 64.9% 0.00in /  0mm 28 W/m2
17:14 73 °F /  22.8 °C 60.2 °F /  15.7 °C 30.31in /  1026.3hPa SSW 0.3mph /  0.5km/h 5mph /  8km/h 64.1% 0.00in /  0mm 26 W/m2
17:19 73.1 °F /  22.8 °C 60 °F /  15.6 °C 30.31in /  1026.3hPa Calm   5mph /  8km/h 63.7% 0.00in /  0mm 26 W/m2
17:24 73 °F /  22.8 °C 60.1 °F /  15.6 °C 30.31in /  1026.3hPa SSW 0.1mph /  0.2km/h 5mph /  8km/h 63.8% 0.00in /  0mm 23 W/m2
17:29 72.9 °F /  22.7 °C 59.3 °F /  15.2 °C 30.31in /  1026.3hPa SSW 0.3mph /  0.5km/h 5mph /  8km/h 62.3% 0.00in /  0mm 21 W/m2
17:34 72.7 °F /  22.6 °C 59.1 °F /  15.1 °C 30.31in /  1026.3hPa Calm   5mph /  8km/h 62.3% 0.00in /  0mm 21 W/m2
17:39 72.5 °F /  22.5 °C 58.9 °F /  14.9 °C 30.31in /  1026.3hPa Calm     62.3% 0.00in /  0mm 21 W/m2
17:44 72.3 °F /  22.4 °C 58.8 °F /  14.9 °C 30.31in /  1026.3hPa Calm     62.5% 0.00in /  0mm 19 W/m2
17:49 72.2 °F /  22.3 °C 58.9 °F /  14.9 °C 30.31in /  1026.3hPa Calm   1mph /  1.6km/h 63% 0.00in /  0mm 19 W/m2
17:54 72 °F /  22.2 °C 58.8 °F /  14.9 °C 30.31in /  1026.3hPa Calm   1mph /  1.6km/h 63.2% 0.00in /  0mm 18 W/m2
17:59 71.9 °F /  22.2 °C 59 °F /  15 °C 30.31in /  1026.3hPa SW 0.3mph /  0.5km/h 2mph /  3.2km/h 63.9% 0.00in /  0mm 18 W/m2
18:04 71.7 °F /  22.1 °C 58.4 °F /  14.7 °C 30.31in /  1026.3hPa South 0.1mph /  0.2km/h 2mph /  3.2km/h 63% 0.00in /  0mm 16 W/m2
18:09 71.5 °F /  21.9 °C 58.4 °F /  14.7 °C 30.31in /  1026.3hPa South 0.1mph /  0.2km/h 2mph /  3.2km/h 63.5% 0.00in /  0mm 12 W/m2
18:14 71.3 °F /  21.8 °C 58.3 °F /  14.6 °C 30.31in /  1026.3hPa Calm   2mph /  3.2km/h 63.6% 0.00in /  0mm 12 W/m2
18:19 71 °F /  21.7 °C 58.3 °F /  14.6 °C 30.31in /  1026.3hPa South 0.3mph /  0.5km/h 3mph /  4.8km/h 64% 0.00in /  0mm 11 W/m2
18:24 70.8 °F /  21.6 °C 58.3 °F /  14.6 °C 30.32in /  1026.6hPa South 0.2mph /  0.3km/h 3mph /  4.8km/h 64.5% 0.00in /  0mm 9 W/m2
18:29 70.6 °F /  21.4 °C 58.3 °F /  14.6 °C 30.32in /  1026.6hPa Calm   3mph /  4.8km/h 65% 0.00in /  0mm 5 W/m2
18:34 70.4 °F /  21.3 °C 58.4 °F /  14.7 °C 30.32in /  1026.6hPa Calm   3mph /  4.8km/h 65.6% 0.00in /  0mm 5 W/m2
18:39 70.2 °F /  21.2 °C 58.6 °F /  14.8 °C 30.32in /  1026.6hPa Calm     66.6% 0.00in /  0mm 0 W/m2
18:44 70 °F /  21.1 °C 58.4 °F /  14.7 °C 30.32in /  1026.6hPa South 0.2mph /  0.3km/h 1mph /  1.6km/h 66.6% 0.00in /  0mm 0 W/m2
18:49 69.8 °F /  21 °C 58.3 °F /  14.6 °C 30.32in /  1026.6hPa Calm   1mph /  1.6km/h 66.9% 0.00in /  0mm 0 W/m2
18:54 69.5 °F /  20.8 °C 58.1 °F /  14.5 °C 30.32in /  1026.6hPa Calm   1mph /  1.6km/h 67% 0.00in /  0mm 0 W/m2
18:59 69.3 °F /  20.7 °C 58.1 °F /  14.5 °C 30.32in /  1026.6hPa Calm   1mph /  1.6km/h 67.7% 0.00in /  0mm 0 W/m2
19:04 69 °F /  20.6 °C 58 °F /  14.4 °C 30.33in /  1027hPa Calm   1mph /  1.6km/h 68% 0.00in /  0mm 0 W/m2
19:09 68.8 °F /  20.4 °C 57.8 °F /  14.3 °C 30.33in /  1027hPa Calm     68% 0.00in /  0mm 0 W/m2
19:14 68.5 °F /  20.3 °C 57.8 °F /  14.3 °C 30.33in /  1027hPa Calm     68.6% 0.00in /  0mm 0 W/m2
19:19 68.3 °F /  20.2 °C 57.8 °F /  14.3 °C 30.33in /  1027hPa Calm     69% 0.00in /  0mm 0 W/m2
19:24 68.1 °F /  20.1 °C 57.8 °F /  14.3 °C 30.33in /  1027hPa Calm     69.6% 0.00in /  0mm 0 W/m2
19:29 67.9 °F /  19.9 °C 57.8 °F /  14.3 °C 30.33in /  1027hPa Calm     70% 0.00in /  0mm 0 W/m2
19:34 67.6 °F /  19.8 °C 57.8 °F /  14.3 °C 30.33in /  1027hPa Calm     70.7% 0.00in /  0mm 0 W/m2
19:39 67.4 °F /  19.7 °C 57.7 °F /  14.3 °C 30.33in /  1027hPa Calm     71.2% 0.00in /  0mm 0 W/m2
19:44 67.2 °F /  19.6 °C 57.8 °F /  14.3 °C 30.33in /  1027hPa Calm     72% 0.00in /  0mm 0 W/m2
19:49 66.9 °F /  19.4 °C 57.7 °F /  14.3 °C 30.33in /  1027hPa Calm     72.3% 0.00in /  0mm 0 W/m2
19:54 66.7 °F /  19.3 °C 57.8 °F /  14.3 °C 30.34in /  1027.3hPa Calm     73% 0.00in /  0mm 0 W/m2
19:59 66.5 °F /  19.2 °C 57.9 °F /  14.4 °C 30.34in /  1027.3hPa Calm     73.8% 0.00in /  0mm 0 W/m2
20:00 66.5 °F /  19.2 °C 58.3 °F /  14.6 °C 30.34in /  1027.3hPa Calm     75% 0.00in /  0mm 0 W/m2
20:09 66.2 °F /  19 °C 58 °F /  14.4 °C 30.34in /  1027.3hPa Calm     74.8% 0.00in /  0mm 0 W/m2
20:14 66.1 °F /  18.9 °C 57.9 °F /  14.4 °C 30.34in /  1027.3hPa Calm     75% 0.00in /  0mm 0 W/m2
20:19 65.9 °F /  18.8 °C 57.8 °F /  14.3 °C 30.34in /  1027.3hPa Calm     75% 0.00in /  0mm 0 W/m2
20:24 65.8 °F /  18.8 °C 58 °F /  14.4 °C 30.34in /  1027.3hPa Calm     76% 0.00in /  0mm 0 W/m2
20:29 65.6 °F /  18.7 °C 57.9 °F /  14.4 °C 30.34in /  1027.3hPa Calm     76% 0.00in /  0mm 0 W/m2
20:34 65.5 °F /  18.6 °C 57.7 °F /  14.3 °C 30.34in /  1027.3hPa Calm     76% 0.00in /  0mm 0 W/m2
20:39 65.3 °F /  18.5 °C 57.8 °F /  14.3 °C 30.35in /  1027.7hPa Calm     76.8% 0.00in /  0mm 0 W/m2
20:44 65.1 °F /  18.4 °C 57.8 °F /  14.3 °C 30.35in /  1027.7hPa Calm     77% 0.00in /  0mm 0 W/m2
20:49 65 °F /  18.3 °C 57.8 °F /  14.3 °C 30.35in /  1027.7hPa Calm     77.5% 0.00in /  0mm 0 W/m2
20:53 64.9 °F /  18.3 °C 57.9 °F /  14.4 °C 30.35in /  1027.7hPa Calm     78% 0.00in /  0mm 0 W/m2
20:59 64.9 °F /  18.3 °C 57.9 °F /  14.4 °C 30.35in /  1027.7hPa Calm     78% 0.00in /  0mm 0 W/m2
21:04 64.9 °F /  18.3 °C 57.9 °F /  14.4 °C 30.35in /  1027.7hPa Calm     78% 0.00in /  0mm 0 W/m2
21:09 64.8 °F /  18.2 °C 57.8 °F /  14.3 °C 30.35in /  1027.7hPa Calm     78% 0.00in /  0mm 0 W/m2
21:14 64.8 °F /  18.2 °C 57.8 °F /  14.3 °C 30.35in /  1027.7hPa Calm     78% 0.00in /  0mm 0 W/m2
21:19 64.8 °F /  18.2 °C 57.8 °F /  14.3 °C 30.35in /  1027.7hPa Calm     78% 0.00in /  0mm 0 W/m2
21:24 64.7 °F /  18.2 °C 57.8 °F /  14.3 °C 30.35in /  1027.7hPa Calm     78.5% 0.00in /  0mm 0 W/m2
21:29 64.5 °F /  18.1 °C 57.8 °F /  14.3 °C 30.35in /  1027.7hPa Calm     78.9% 0.00in /  0mm 0 W/m2
21:34 64.4 °F /  18 °C 57.7 °F /  14.3 °C 30.35in /  1027.7hPa Calm     79% 0.00in /  0mm 0 W/m2
21:39 64.2 °F /  17.9 °C 57.5 °F /  14.2 °C 30.35in /  1027.7hPa Calm     79% 0.00in /  0mm 0 W/m2
21:44 63.9 °F /  17.7 °C 57.3 °F /  14.1 °C 30.35in /  1027.7hPa Calm     79% 0.00in /  0mm 0 W/m2
21:48 63.7 °F /  17.6 °C 57.1 °F /  13.9 °C 30.35in /  1027.7hPa Calm     79% 0.00in /  0mm 0 W/m2
Hartford County Weather
Compliments of Weather Underground - 4 mb